Time;durP1;ratioP1;P1;durP2;ratioP2;P2;SDS_P1;SDS_P2;PMS_P1;PMS_P2;Temp;Humidity;BMP_temperature;BMP_pressure;BME280_temperature;BME280_humidity;BME280_pressure;Samples;Min_cycle;Max_cycle;Signal;HPM_P1;HPM_P2
2023/09/22 00:00:18;;;;;;;;;;;;;;;20.01;82.14;99347.06;5034514;28;19913;-78
2023/09/22 00:02:44;;;;;;;;;;;;;;;20.25;81.15;99350.34;5032706;28;19927;-78
2023/09/22 00:05:10;;;;;;;;;;;;;;;20.43;81.17;99338.22;5052148;28;19916;-78
2023/09/22 00:07:37;;;;;;;;;;;;;;;20.55;80.71;99346.31;5037378;28;19912;-78
2023/09/22 00:10:04;;;;;;;;;;;;;;;20.46;81.10;99343.91;5034365;28;19917;-78
2023/09/22 00:12:31;;;;;;;;;;;;;;;20.58;80.63;99344.72;5034893;28;20393;-78
2023/09/22 00:14:57;;;;;;;;;;;;;;;20.28;81.70;99337.38;5037510;28;19913;-77
2023/09/22 00:17:22;;;;;;;;;;;;;;;20.15;82.26;99336.97;5036742;28;19912;-78
2023/09/22 00:19:47;;;;;;;;;;;;;;;20.16;82.83;99341.44;5040595;28;19913;-77
2023/09/22 00:22:12;;;;;;;;;;;;;;;20.34;82.64;99342.25;5075340;28;20403;-77
2023/09/22 00:24:38;;;;;;;;;;;;;;;20.15;83.79;99332.09;5036666;28;19970;-78
2023/09/22 00:27:03;;;;;;;;;;;;;;;19.93;85.02;99339.78;5045281;28;20321;-77
2023/09/22 00:29:28;;;;;;;;;;;;;;;19.91;85.65;99339.34;5035957;28;19909;-77
2023/09/22 00:31:54;;;;;;;;;;;;;;;20.25;84.42;99336.16;5061324;28;20392;-78
2023/09/22 00:34:19;;;;;;;;;;;;;;;20.46;82.64;99328.88;5037680;28;19924;-77
2023/09/22 00:36:45;;;;;;;;;;;;;;;20.28;83.50;99341.06;5057010;28;19909;-77
2023/09/22 00:39:10;;;;;;;;;;;;;;;20.04;85.19;99345.47;5057187;28;19916;-77
2023/09/22 00:41:35;;;;;;;;;;;;;;;20.22;84.71;99347.53;5036552;28;20054;-77
2023/09/22 00:44:01;;;;;;;;;;;;;;;20.05;85.23;99370.63;5057714;28;19917;-78
2023/09/22 00:46:26;;;;;;;;;;;;;;;19.30;89.91;99373.94;5030861;28;19913;-77
2023/09/22 00:48:52;;;;;;;;;;;;;;;18.79;93.85;99382.13;5048131;28;19952;-77
2023/09/22 00:51:19;;;;;;;;;;;;;;;18.69;95.51;99380.84;5076190;28;19912;-77
2023/09/22 00:53:45;;;;;;;;;;;;;;;18.65;96.29;99369.47;5059300;28;19916;-77
2023/09/22 00:56:11;;;;;;;;;;;;;;;18.84;95.39;99366.78;5077139;28;20358;-77
2023/09/22 00:58:36;;;;;;;;;;;;;;;18.99;94.53;99362.03;5075316;28;19942;-77
2023/09/22 01:01:02;;;;;;;;;;;;;;;18.91;94.78;99342.13;5046430;28;20290;-78
2023/09/22 01:03:29;;;;;;;;;;;;;;;19.02;94.96;99347.91;5037715;28;19915;-78
2023/09/22 01:05:55;;;;;;;;;;;;;;;19.38;93.13;99354.97;5055822;28;19921;-78
2023/09/22 01:08:20;;;;;;;;;;;;;;;19.15;93.50;99354.03;5040382;28;19919;-77
2023/09/22 01:10:46;;;;;;;;;;;;;;;19.07;93.76;99360.91;5035103;28;19909;-77
2023/09/22 01:13:12;;;;;;;;;;;;;;;18.41;99.01;99368.09;5034968;28;20367;-77
2023/09/22 01:15:40;;;;;;;;;;;;;;;18.83;97.66;99371.66;5050750;28;19987;-77
2023/09/22 01:18:06;;;;;;;;;;;;;;;19.17;94.41;99368.63;5038310;28;20381;-77
2023/09/22 01:20:32;;;;;;;;;;;;;;;19.16;94.03;99367.00;5036310;28;19920;-77
2023/09/22 01:22:58;;;;;;;;;;;;;;;18.57;97.49;99370.63;5057534;28;19909;-77
2023/09/22 01:25:23;;;;;;;;;;;;;;;18.47;98.82;99366.50;5057179;28;19969;-77
2023/09/22 01:27:49;;;;;;;;;;;;;;;18.33;100.00;99380.53;5064368;28;19913;-77
2023/09/22 01:30:15;;;;;;;;;;;;;;;18.19;100.00;99392.53;5054857;28;19912;-77
2023/09/22 01:32:41;;;;;;;;;;;;;;;18.12;100.00;99396.09;5057977;28;19960;-77
2023/09/22 01:35:09;;;;;;;;;;;;;;;17.90;100.00;99389.38;5075155;28;19935;-77
2023/09/22 01:37:38;;;;;;;;;;;;;;;17.75;100.00;99394.88;5052132;28;19921;-78
2023/09/22 01:40:03;;;;;;;;;;;;;;;17.87;100.00;99395.81;5036802;28;19913;-77
2023/09/22 01:42:28;;;;;;;;;;;;;;;18.12;100.00;99392.47;5054912;28;20007;-77
2023/09/22 01:44:54;;;;;;;;;;;;;;;18.29;100.00;99391.81;5036128;28;20003;-77
2023/09/22 01:47:19;;;;;;;;;;;;;;;18.26;100.00;99392.59;5053476;28;20308;-77
2023/09/22 01:49:44;;;;;;;;;;;;;;;18.55;100.00;99389.22;5054009;28;20468;-77
2023/09/22 01:52:09;;;;;;;;;;;;;;;18.37;100.00;99390.69;5052104;28;19919;-77
2023/09/22 01:54:35;;;;;;;;;;;;;;;18.18;100.00;99393.72;5060902;28;20412;-77
2023/09/22 01:57:00;;;;;;;;;;;;;;;18.22;100.00;99394.56;5073817;28;19995;-77
2023/09/22 01:59:25;;;;;;;;;;;;;;;17.99;100.00;99398.38;5037535;28;19919;-77
2023/09/22 02:01:51;;;;;;;;;;;;;;;18.20;100.00;99400.63;5053939;28;19931;-77
2023/09/22 02:04:16;;;;;;;;;;;;;;;18.12;100.00;99404.59;5057496;28;19913;-77
2023/09/22 02:06:41;;;;;;;;;;;;;;;18.40;100.00;99406.06;5054456;28;19927;-77
2023/09/22 02:09:07;;;;;;;;;;;;;;;18.74;97.96;99399.50;5069877;28;19908;-77
2023/09/22 02:11:32;;;;;;;;;;;;;;;18.91;95.72;99398.81;5034462;28;20072;-77
2023/09/22 02:13:58;;;;;;;;;;;;;;;19.00;95.47;99392.81;5017177;28;20091;-77
2023/09/22 02:16:23;;;;;;;;;;;;;;;19.21;94.22;99377.97;5038328;28;19908;-77
2023/09/22 02:18:50;;;;;;;;;;;;;;;19.42;92.55;99392.66;5053477;28;20389;-78
2023/09/22 02:21:17;;;;;;;;;;;;;;;19.48;91.30;99388.22;5047669;28;19916;-78
2023/09/22 02:23:42;;;;;;;;;;;;;;;19.47;91.35;99381.75;5055914;28;19916;-77
2023/09/22 02:26:07;;;;;;;;;;;;;;;19.66;89.56;99376.94;5059717;28;20004;-77
2023/09/22 02:28:33;;;;;;;;;;;;;;;19.72;88.56;99368.88;5053095;28;19913;-77
2023/09/22 02:30:58;;;;;;;;;;;;;;;19.73;88.13;99374.16;5034949;28;19909;-77
2023/09/22 02:33:24;;;;;;;;;;;;;;;19.70;87.74;99372.13;5052694;28;19977;-77
2023/09/22 02:35:49;;;;;;;;;;;;;;;19.46;89.73;99365.94;5034281;28;19935;-77
2023/09/22 02:38:15;;;;;;;;;;;;;;;19.50;89.10;99375.28;5061713;28;19917;-77
2023/09/22 02:40:41;;;;;;;;;;;;;;;19.50;89.05;99369.59;5069084;28;20377;-77
2023/09/22 02:43:06;;;;;;;;;;;;;;;19.54;88.50;99361.13;5050830;28;19917;-77
2023/09/22 02:45:31;;;;;;;;;;;;;;;19.62;88.06;99364.78;5052478;28;19915;-77
2023/09/22 02:47:57;;;;;;;;;;;;;;;19.58;87.63;99359.09;5034469;28;19909;-77
2023/09/22 02:50:22;;;;;;;;;;;;;;;19.18;90.48;99358.91;5063342;28;20380;-77
2023/09/22 02:52:47;;;;;;;;;;;;;;;19.36;89.69;99358.19;5072080;28;20439;-77
2023/09/22 02:55:13;;;;;;;;;;;;;;;19.30;89.51;99357.78;5072154;28;20308;-77
2023/09/22 02:57:39;;;;;;;;;;;;;;;19.10;90.54;99351.59;5067480;28;20403;-77
2023/09/22 03:00:26;;;;;;;;;;;;;;;18.96;91.24;99351.47;5050695;28;19924;-77
2023/09/22 03:02:53;;;;;;;;;;;;;;;18.89;91.15;99344.56;5051144;28;19952;-77
2023/09/22 03:05:18;;;;;;;;;;;;;;;19.04;90.83;99339.81;5034116;28;19908;-77
2023/09/22 03:07:44;;;;;;;;;;;;;;;19.03;90.45;99337.38;5052111;28;19976;-77
2023/09/22 03:10:10;;;;;;;;;;;;;;;19.21;88.97;99341.13;5052078;28;20002;-77
2023/09/22 03:12:37;;;;;;;;;;;;;;;19.03;88.77;99337.38;5052039;28;19966;-77
2023/09/22 03:15:03;;;;;;;;;;;;;;;18.80;90.56;99342.06;5052300;28;20007;-77
2023/09/22 03:17:28;;;;;;;;;;;;;;;18.87;90.13;99346.97;5050518;28;19962;-77
2023/09/22 03:19:54;;;;;;;;;;;;;;;18.88;90.03;99342.09;5069668;28;19998;-77
2023/09/22 03:22:20;;;;;;;;;;;;;;;19.18;88.23;99344.72;5068336;28;19908;-77
2023/09/22 03:24:46;;;;;;;;;;;;;;;19.12;88.39;99342.69;5052092;28;20399;-77
2023/09/22 03:27:11;;;;;;;;;;;;;;;19.11;88.80;99341.88;5054857;28;20003;-77
2023/09/22 03:29:36;;;;;;;;;;;;;;;19.17;88.89;99343.13;5059475;28;19913;-77
2023/09/22 03:32:02;;;;;;;;;;;;;;;19.17;88.64;99348.78;5039606;28;19908;-77
2023/09/22 03:34:27;;;;;;;;;;;;;;;19.18;88.58;99353.25;5061458;28;19980;-77
2023/09/22 03:36:52;;;;;;;;;;;;;;;19.01;89.48;99349.13;5050206;28;20324;-76
2023/09/22 03:39:21;;;;;;;;;;;;;;;19.06;89.56;99347.91;5031527;28;19966;-77
2023/09/22 03:41:52;;;;;;;;;;;;;;;19.11;89.14;99347.56;5031410;28;19968;-77
2023/09/22 03:44:17;;;;;;;;;;;;;;;19.24;88.34;99350.84;5013910;28;19909;-77
2023/09/22 03:46:42;;;;;;;;;;;;;;;18.85;89.89;99363.56;5041615;28;19916;-77
2023/09/22 03:49:07;;;;;;;;;;;;;;;18.91;90.43;99367.63;5038915;28;19947;-77
2023/09/22 03:51:33;;;;;;;;;;;;;;;19.13;89.06;99372.69;5037463;28;19909;-77
2023/09/22 03:53:58;;;;;;;;;;;;;;;19.03;89.52;99379.88;5055335;28;19913;-77
2023/09/22 03:56:24;;;;;;;;;;;;;;;19.07;89.25;99375.06;5037185;28;20300;-77
2023/09/22 03:58:49;;;;;;;;;;;;;;;19.10;89.20;99373.44;5055719;28;19952;-76
2023/09/22 04:01:14;;;;;;;;;;;;;;;19.14;88.75;99374.28;5075164;28;19912;-76
2023/09/22 04:03:39;;;;;;;;;;;;;;;19.27;87.99;99377.59;5059396;28;20438;-77
2023/09/22 04:06:05;;;;;;;;;;;;;;;19.29;87.58;99383.69;5061488;28;19918;-77
2023/09/22 04:08:30;;;;;;;;;;;;;;;19.32;87.31;99391.41;5075209;28;20340;-77
2023/09/22 04:10:56;;;;;;;;;;;;;;;19.19;87.57;99388.91;5072957;28;19912;-76
2023/09/22 04:13:21;;;;;;;;;;;;;;;19.01;89.22;99397.31;5056925;28;20346;-77
2023/09/22 04:15:47;;;;;;;;;;;;;;;19.06;88.56;99398.94;5075442;28;19918;-76
2023/09/22 04:18:13;;;;;;;;;;;;;;;18.91;89.65;99400.84;5057106;28;19956;-76
2023/09/22 04:20:43;;;;;;;;;;;;;;;19.05;88.76;99395.28;5065455;28;20015;-75
2023/09/22 04:23:09;;;;;;;;;;;;;;;19.05;88.81;99395.28;5032898;28;19963;-77
2023/09/22 04:25:37;;;;;;;;;;;;;;;19.04;88.87;99404.19;5052863;28;19916;-78
2023/09/22 04:28:11;;;;;;;;;;;;;;;19.05;89.06;99402.97;5032480;28;19971;-79
2023/09/22 04:30:41;;;;;;;;;;;;;;;18.89;89.57;99408.94;5034300;28;19909;-74
2023/09/22 04:33:06;;;;;;;;;;;;;;;18.97;88.89;99415.47;5047566;28;19916;-73
2023/09/22 04:35:32;;;;;;;;;;;;;;;18.83;89.64;99422.66;5038634;28;19909;-73
2023/09/22 04:38:01;;;;;;;;;;;;;;;18.90;89.68;99419.84;5064183;28;19974;-73
2023/09/22 04:40:35;;;;;;;;;;;;;;;18.81;89.98;99419.38;5063738;28;20308;-73
2023/09/22 04:43:00;;;;;;;;;;;;;;;18.87;89.50;99420.66;5073049;28;19973;-73
2023/09/22 04:45:25;;;;;;;;;;;;;;;18.80;90.10;99415.72;5054520;28;20443;-73
2023/09/22 04:47:52;;;;;;;;;;;;;;;18.87;89.84;99406.47;5055181;28;19931;-73
2023/09/22 04:50:17;;;;;;;;;;;;;;;19.02;89.22;99412.28;5036145;28;20051;-73
2023/09/22 04:52:43;;;;;;;;;;;;;;;19.11;88.68;99418.41;5035943;28;19943;-73
2023/09/22 04:55:09;;;;;;;;;;;;;;;18.55;91.73;99418.34;5052585;28;19917;-73
2023/09/22 04:57:34;;;;;;;;;;;;;;;18.57;92.46;99417.97;5064071;28;20376;-73
2023/09/22 05:00:00;;;;;;;;;;;;;;;18.50;93.14;99408.19;5072385;28;20010;-73
2023/09/22 05:02:26;;;;;;;;;;;;;;;18.56;93.51;99413.50;5064029;28;19913;-73
2023/09/22 05:04:51;;;;;;;;;;;;;;;18.66;92.72;99419.25;5054225;28;20352;-73
2023/09/22 05:07:17;;;;;;;;;;;;;;;18.54;94.07;99415.91;5054143;28;19909;-73
2023/09/22 05:09:43;;;;;;;;;;;;;;;18.58;94.18;99413.94;5054196;28;20034;-73
2023/09/22 05:12:09;;;;;;;;;;;;;;;18.77;93.18;99410.88;5053096;28;19962;-73
2023/09/22 05:14:34;;;;;;;;;;;;;;;18.92;92.42;99410.97;5054303;28;19916;-73
2023/09/22 05:17:00;;;;;;;;;;;;;;;19.03;91.68;99413.91;5029654;28;20312;-73
2023/09/22 05:19:25;;;;;;;;;;;;;;;19.21;91.35;99426.19;5032999;28;19917;-74
2023/09/22 05:21:51;;;;;;;;;;;;;;;19.33;90.53;99427.06;5053900;28;19951;-73
2023/09/22 05:24:17;;;;;;;;;;;;;;;19.56;89.29;99432.44;5052133;28;19931;-73
2023/09/22 05:26:42;;;;;;;;;;;;;;;19.53;89.00;99429.56;5061932;28;19913;-73
2023/09/22 05:29:07;;;;;;;;;;;;;;;19.48;89.91;99423.09;5016361;28;20003;-73
2023/09/22 05:31:34;;;;;;;;;;;;;;;19.72;88.86;99425.59;5051021;28;19938;-73
2023/09/22 05:33:59;;;;;;;;;;;;;;;19.67;88.27;99429.66;5033929;28;20423;-73
2023/09/22 05:36:24;;;;;;;;;;;;;;;19.81;87.22;99439.44;5052741;28;20014;-73
2023/09/22 05:38:50;;;;;;;;;;;;;;;20.09;86.51;99440.78;5053303;28;19920;-73
2023/09/22 05:41:15;;;;;;;;;;;;;;;20.26;85.70;99437.16;5035719;28;20300;-73
2023/09/22 05:43:40;;;;;;;;;;;;;;;20.37;84.91;99442.06;5054270;28;19909;-73
2023/09/22 05:46:07;;;;;;;;;;;;;;;20.52;84.74;99440.88;5049440;28;19912;-73
2023/09/22 05:48:32;;;;;;;;;;;;;;;20.22;85.34;99439.19;5046258;28;19916;-73
2023/09/22 05:50:59;;;;;;;;;;;;;;;20.48;84.98;99440.88;5050671;28;20294;-75
2023/09/22 05:53:27;;;;;;;;;;;;;;;19.81;88.10;99450.81;5031482;28;19916;-73
2023/09/22 05:56:06;;;;;;;;;;;;;;;19.52;89.70;99445.78;5054705;28;19913;-72
2023/09/22 05:58:32;;;;;;;;;;;;;;;19.89;88.04;99460.94;5034843;28;19925;-77
2023/09/22 06:00:58;;;;;;;;;;;;;;;19.44;91.49;99458.31;5050508;28;19936;-74
2023/09/22 06:03:24;;;;;;;;;;;;;;;19.39;91.98;99448.16;5032025;28;19951;-75
2023/09/22 06:05:49;;;;;;;;;;;;;;;19.42;90.81;99449.38;5050973;28;19948;-75
2023/09/22 06:08:15;;;;;;;;;;;;;;;19.28;90.27;99448.09;5050313;28;19912;-73
2023/09/22 06:10:40;;;;;;;;;;;;;;;19.38;90.83;99440.06;5035648;28;19974;-74
2023/09/22 06:13:06;;;;;;;;;;;;;;;19.70;88.60;99451.56;5049228;28;19913;-73
2023/09/22 06:15:32;;;;;;;;;;;;;;;20.11;87.15;99449.72;5037540;28;19917;-73
2023/09/22 06:17:58;;;;;;;;;;;;;;;20.17;86.29;99450.97;5040074;28;19920;-74
2023/09/22 06:20:23;;;;;;;;;;;;;;;20.33;85.86;99453.41;5033471;28;20564;-74
2023/09/22 06:22:52;;;;;;;;;;;;;;;20.59;84.62;99457.13;5044339;28;19954;-74
2023/09/22 06:25:18;;;;;;;;;;;;;;;20.74;84.81;99463.63;5046970;28;19920;-76
2023/09/22 06:27:44;;;;;;;;;;;;;;;20.96;83.25;99460.81;5051942;28;19958;-77
2023/09/22 06:30:12;;;;;;;;;;;;;;;20.28;81.93;99462.34;5044639;28;20387;-77
2023/09/22 06:32:40;;;;;;;;;;;;;;;20.01;84.88;99460.63;5046124;28;20018;-78
2023/09/22 06:35:07;;;;;;;;;;;;;;;20.38;83.21;99470.06;5029316;28;19958;-77
2023/09/22 06:37:33;;;;;;;;;;;;;;;20.77;81.23;99474.19;5048177;28;19928;-77
2023/09/22 06:39:58;;;;;;;;;;;;;;;20.93;80.77;99470.94;5027354;28;19913;-77
2023/09/22 06:42:23;;;;;;;;;;;;;;;21.18;82.08;99482.31;5027181;28;20679;-77
2023/09/22 06:44:49;;;;;;;;;;;;;;;21.17;79.58;99472.19;5047530;28;20412;-77
2023/09/22 06:47:15;;;;;;;;;;;;;;;21.52;77.97;99480.25;5043843;28;19928;-77
2023/09/22 06:49:40;;;;;;;;;;;;;;;21.40;79.21;99478.63;5049686;28;20400;-77
2023/09/22 06:52:06;;;;;;;;;;;;;;;21.36;79.60;99478.66;5045864;28;19916;-77
2023/09/22 06:54:32;;;;;;;;;;;;;;;21.20;79.77;99489.63;5028748;28;19961;-77
2023/09/22 06:56:57;;;;;;;;;;;;;;;21.58;78.99;99484.28;5029057;28;20062;-77
2023/09/22 06:59:22;;;;;;;;;;;;;;;21.82;80.31;99494.03;5024214;28;19917;-73
2023/09/22 07:01:48;;;;;;;;;;;;;;;21.98;78.41;99490.72;5029313;28;20083;-71
2023/09/22 07:04:13;;;;;;;;;;;;;;;22.21;76.70;99489.41;5047683;28;19956;-71
2023/09/22 07:06:40;;;;;;;;;;;;;;;22.12;77.46;99501.22;5047721;28;19912;-71
2023/09/22 07:09:09;;;;;;;;;;;;;;;22.12;77.30;99497.56;5047759;28;19919;-72
2023/09/22 07:11:39;;;;;;;;;;;;;;;21.58;77.25;99489.97;5028085;28;19971;-71
2023/09/22 07:14:05;;;;;;;;;;;;;;;21.74;77.08;99498.94;5047362;28;19932;-71
2023/09/22 07:16:32;;;;;;;;;;;;;;;22.16;77.15;99493.47;5028902;28;19917;-71
2023/09/22 07:18:57;;;;;;;;;;;;;;;21.53;76.89;99496.09;5029655;28;19921;-71
2023/09/22 07:21:23;;;;;;;;;;;;;;;21.82;76.21;99496.03;5044426;28;20538;-71
2023/09/22 07:23:48;;;;;;;;;;;;;;;22.24;75.70;99496.28;5030535;28;19932;-71
2023/09/22 07:26:13;;;;;;;;;;;;;;;22.66;73.55;99499.31;5028254;28;20345;-71
2023/09/22 07:28:40;;;;;;;;;;;;;;;22.98;71.56;99501.13;5027323;28;19920;-71
2023/09/22 07:31:11;;;;;;;;;;;;;;;22.90;71.23;99502.41;5045825;28;19927;-71
2023/09/22 07:33:37;;;;;;;;;;;;;;;23.22;70.34;99507.03;5029322;28;19917;-71
2023/09/22 07:36:02;;;;;;;;;;;;;;;23.50;69.03;99500.28;5047543;28;19915;-71
2023/09/22 07:38:29;;;;;;;;;;;;;;;22.94;70.46;99504.00;5046994;28;20055;-71
2023/09/22 07:40:54;;;;;;;;;;;;;;;22.52;72.16;99509.59;5041529;28;20147;-71
2023/09/22 07:43:20;;;;;;;;;;;;;;;22.56;72.17;99507.53;5046262;28;20399;-71
2023/09/22 07:45:47;;;;;;;;;;;;;;;22.75;72.39;99507.44;5046588;28;20031;-71
2023/09/22 07:48:12;;;;;;;;;;;;;;;23.00;72.04;99507.22;5047517;28;19909;-71
2023/09/22 07:50:39;;;;;;;;;;;;;;;22.86;72.16;99508.13;5043192;28;19921;-71
2023/09/22 07:53:04;;;;;;;;;;;;;;;23.26;70.76;99508.63;5045972;28;19923;-71
2023/09/22 07:55:29;;;;;;;;;;;;;;;23.70;68.81;99502.50;5047164;28;19912;-69
2023/09/22 07:57:55;;;;;;;;;;;;;;;24.01;67.56;99501.75;5046947;28;19939;-69
2023/09/22 08:00:20;;;;;;;;;;;;;;;24.01;67.14;99504.59;5045105;28;19916;-69
2023/09/22 08:02:46;;;;;;;;;;;;;;;24.19;65.72;99504.41;5046994;28;19924;-69
2023/09/22 08:05:15;;;;;;;;;;;;;;;24.23;64.44;99508.03;5041226;28;19917;-73
2023/09/22 08:07:44;;;;;;;;;;;;;;;24.44;64.07;99506.94;5028599;28;19921;-72
2023/09/22 08:10:10;;;;;;;;;;;;;;;24.58;62.85;99503.06;5029476;28;19912;-71
2023/09/22 08:12:37;;;;;;;;;;;;;;;24.56;63.50;99496.97;5050042;28;19987;-72
2023/09/22 08:15:02;;;;;;;;;;;;;;;24.42;63.07;99497.16;5031597;28;19975;-72
2023/09/22 08:17:28;;;;;;;;;;;;;;;24.53;65.55;99490.06;5021512;28;19917;-72
2023/09/22 08:19:53;;;;;;;;;;;;;;;24.51;63.37;99491.72;5031054;28;20459;-72
2023/09/22 08:22:19;;;;;;;;;;;;;;;24.32;64.23;99496.91;5033190;28;19928;-72
2023/09/22 08:24:44;;;;;;;;;;;;;;;24.14;63.57;99487.75;5051115;28;19936;-74
2023/09/22 08:27:09;;;;;;;;;;;;;;;24.03;64.71;99485.84;5047606;28;19913;-72
2023/09/22 08:29:34;;;;;;;;;;;;;;;24.61;62.95;99475.66;5037274;28;20316;-72
2023/09/22 08:32:00;;;;;;;;;;;;;;;24.78;62.43;99486.06;5046969;28;19913;-71
2023/09/22 08:34:25;;;;;;;;;;;;;;;25.01;62.97;99489.34;5045575;28;20311;-71
2023/09/22 08:36:51;;;;;;;;;;;;;;;25.41;60.42;99483.78;5051238;28;20007;-71
2023/09/22 08:39:16;;;;;;;;;;;;;;;25.57;59.34;99485.16;5050040;28;19966;-72
2023/09/22 08:41:43;;;;;;;;;;;;;;;25.05;60.10;99484.41;5050416;28;20362;-72
2023/09/22 08:44:09;;;;;;;;;;;;;;;25.24;59.14;99477.91;5052766;28;19916;-71
2023/09/22 08:46:35;;;;;;;;;;;;;;;24.95;60.02;99474.75;5035015;28;19916;-70
2023/09/22 08:49:00;;;;;;;;;;;;;;;25.32;59.79;99472.88;5054697;28;19909;-71
2023/09/22 08:51:26;;;;;;;;;;;;;;;25.87;59.26;99466.94;5053005;28;20011;-73
2023/09/22 08:53:55;;;;;;;;;;;;;;;26.17;58.01;99464.28;5025064;28;19952;-74
2023/09/22 08:56:24;;;;;;;;;;;;;;;26.30;55.60;99458.69;5034474;28;19919;-72
2023/09/22 08:58:51;;;;;;;;;;;;;;;26.58;55.69;99453.56;5026378;28;19909;-72
2023/09/22 09:01:16;;;;;;;;;;;;;;;26.53;57.81;99452.03;5052760;28;20011;-72
2023/09/22 09:03:41;;;;;;;;;;;;;;;26.61;56.63;99447.75;5026704;28;20453;-73
2023/09/22 09:06:07;;;;;;;;;;;;;;;26.40;57.47;99449.03;5038569;28;19917;-72
2023/09/22 09:08:35;;;;;;;;;;;;;;;26.29;54.94;99449.31;5050850;28;19908;-72
2023/09/22 09:11:08;;;;;;;;;;;;;;;25.46;56.97;99443.19;5032036;28;20003;-71
2023/09/22 09:13:34;;;;;;;;;;;;;;;26.05;56.96;99443.66;5051285;28;20486;-74
2023/09/22 09:16:06;;;;;;;;;;;;;;;26.66;54.57;99434.13;5058754;28;19912;-72
2023/09/22 09:18:31;;;;;;;;;;;;;;;26.85;55.62;99441.84;5047734;28;19971;-73
2023/09/22 09:21:10;;;;;;;;;;;;;;;27.07;53.31;99432.69;5051236;28;19924;-73
2023/09/22 09:23:36;;;;;;;;;;;;;;;27.16;52.76;99423.47;5051847;28;19917;-73
2023/09/22 09:26:01;;;;;;;;;;;;;;;27.25;52.91;99428.56;5037003;28;19916;-73
2023/09/22 09:28:28;;;;;;;;;;;;;;;27.38;52.65;99419.97;5033839;28;19909;-73
2023/09/22 09:30:54;;;;;;;;;;;;;;;27.59;53.08;99425.16;5032565;28;19908;-73
2023/09/22 09:33:31;;;;;;;;;;;;;;;27.84;51.97;99415.00;5021259;28;20411;-73
2023/09/22 09:35:57;;;;;;;;;;;;;;;26.81;51.01;99414.50;5034252;28;20355;-75
2023/09/22 09:38:26;;;;;;;;;;;;;;;26.48;53.67;99412.41;5031988;28;19913;-73
2023/09/22 09:40:52;;;;;;;;;;;;;;;26.17;54.44;99409.84;5033562;28;20011;-71
2023/09/22 09:43:17;;;;;;;;;;;;;;;26.60;61.72;99405.97;5033522;28;19943;-73
2023/09/22 09:45:50;;;;;;;;;;;;;;;26.92;60.58;99406.47;5033532;28;19916;-73
2023/09/22 09:48:16;;;;;;;;;;;;;;;27.05;61.18;99397.91;5031717;28;19962;-74
2023/09/22 09:50:50;;;;;;;;;;;;;;;27.36;56.84;99393.78;5032233;28;20308;-75
2023/09/22 09:53:23;;;;;;;;;;;;;;;27.36;57.82;99390.94;5031695;28;19970;-75
2023/09/22 09:55:50;;;;;;;;;;;;;;;27.42;56.40;99381.31;5031950;28;19921;-75
2023/09/22 09:58:16;;;;;;;;;;;;;;;27.52;57.36;99388.03;5033329;28;20040;-74
2023/09/22 10:00:42;;;;;;;;;;;;;;;27.81;52.05;99384.31;5033283;28;19966;-74
2023/09/22 10:03:08;;;;;;;;;;;;;;;27.85;52.76;99393.63;5033127;28;19909;-74
2023/09/22 10:05:33;;;;;;;;;;;;;;;27.77;53.80;99386.50;5033248;28;20392;-73
2023/09/22 10:07:59;;;;;;;;;;;;;;;27.78;49.76;99382.38;5021468;28;19959;-73
2023/09/22 10:10:26;;;;;;;;;;;;;;;27.89;49.76;99376.28;5031545;28;19919;-74
2023/09/22 10:12:51;;;;;;;;;;;;;;;28.26;53.73;99379.69;5032854;28;19956;-73
2023/09/22 10:15:36;;;;;;;;;;;;;;;28.17;48.22;99376.66;5031577;28;19967;-74
2023/09/22 10:18:04;;;;;;;;;;;;;;;28.59;49.32;99375.72;5032794;28;20285;-74
2023/09/22 10:20:42;;;;;;;;;;;;;;;28.64;49.58;99369.41;5031619;28;20454;-74
2023/09/22 10:23:19;;;;;;;;;;;;;;;28.89;49.01;99372.72;5032700;28;20402;-74
2023/09/22 10:26:16;;;;;;;;;;;;;;;28.86;48.15;99371.59;5029736;28;19920;-74
2023/09/22 10:28:42;;;;;;;;;;;;;;;28.96;48.05;99367.53;4989510;28;19921;-74
2023/09/22 10:31:08;;;;;;;;;;;;;;;28.76;46.41;99355.47;5013337;28;19967;-74
2023/09/22 10:33:34;;;;;;;;;;;;;;;28.64;46.71;99363.66;5027908;28;19916;-74
2023/09/22 10:36:04;;;;;;;;;;;;;;;29.14;47.83;99357.44;5030266;28;19920;-74
2023/09/22 10:38:29;;;;;;;;;;;;;;;29.38;46.40;99357.81;5042327;28;19927;-74
2023/09/22 10:41:04;;;;;;;;;;;;;;;29.55;44.25;99341.13;5051825;28;20332;-74
2023/09/22 10:43:30;;;;;;;;;;;;;;;29.54;44.92;99342.41;5052022;28;19909;-73
2023/09/22 10:45:56;;;;;;;;;;;;;;;29.68;44.77;99341.06;5034385;28;20293;-74
2023/09/22 10:48:22;;;;;;;;;;;;;;;29.49;44.61;99339.34;5051895;28;19916;-74
2023/09/22 10:50:51;;;;;;;;;;;;;;;29.68;44.90;99334.50;5052164;28;19909;-74
2023/09/22 10:53:16;;;;;;;;;;;;;;;29.62;43.12;99327.75;5033928;28;19909;-74
2023/09/22 10:55:43;;;;;;;;;;;;;;;29.81;43.96;99328.66;5049767;28;19967;-74
2023/09/22 10:58:11;;;;;;;;;;;;;;;30.01;42.51;99319.63;5050791;28;19916;-74
2023/09/22 11:00:42;;;;;;;;;;;;;;;30.12;42.53;99322.09;5063038;28;19912;-74
2023/09/22 11:03:08;;;;;;;;;;;;;;;30.40;42.25;99317.22;5051839;28;19947;-74
2023/09/22 11:05:34;;;;;;;;;;;;;;;30.40;43.30;99310.66;5065630;28;19912;-74
2023/09/22 11:08:01;;;;;;;;;;;;;;;30.29;41.75;99313.19;5071689;28;19974;-74
2023/09/22 11:10:27;;;;;;;;;;;;;;;30.37;41.58;99311.63;5038965;28;19956;-74
2023/09/22 11:12:54;;;;;;;;;;;;;;;30.67;40.26;99306.25;5033660;28;19955;-74
2023/09/22 11:15:20;;;;;;;;;;;;;;;30.85;41.27;99308.34;5033599;28;19948;-74
2023/09/22 11:17:46;;;;;;;;;;;;;;;30.68;42.23;99296.31;5033742;28;19917;-73
2023/09/22 11:20:18;;;;;;;;;;;;;;;30.86;39.92;99301.28;5033883;28;19967;-74
2023/09/22 11:22:44;;;;;;;;;;;;;;;30.95;42.18;99301.28;5033684;28;19909;-73
2023/09/22 11:25:12;;;;;;;;;;;;;;;30.80;40.19;99291.69;5051184;28;20357;-73
2023/09/22 11:27:41;;;;;;;;;;;;;;;30.77;40.52;99296.31;5062323;28;19935;-73
2023/09/22 11:30:09;;;;;;;;;;;;;;;30.37;40.50;99283.56;5035795;28;19916;-73
2023/09/22 11:32:34;;;;;;;;;;;;;;;30.49;41.52;99281.84;5041270;28;19953;-73
2023/09/22 11:34:59;;;;;;;;;;;;;;;30.64;41.22;99279.13;5029752;28;19947;-73
2023/09/22 11:37:31;;;;;;;;;;;;;;;30.90;40.75;99278.84;5044719;28;20340;-73
2023/09/22 11:39:56;;;;;;;;;;;;;;;31.03;39.65;99263.44;5040183;28;19913;-73
2023/09/22 11:42:23;;;;;;;;;;;;;;;31.19;38.97;99263.09;5036175;28;20000;-73
2023/09/22 11:44:56;;;;;;;;;;;;;;;31.34;38.21;99262.47;5062423;28;20380;-73
2023/09/22 11:47:21;;;;;;;;;;;;;;;31.15;39.24;99262.47;5023146;28;19920;-73
2023/09/22 11:49:47;;;;;;;;;;;;;;;31.18;39.06;99264.38;5042838;28;19908;-73
2023/09/22 11:52:12;;;;;;;;;;;;;;;31.07;38.44;99261.19;5045151;28;20381;-73
2023/09/22 11:54:37;;;;;;;;;;;;;;;31.09;39.50;99255.72;5035461;28;19923;-73
2023/09/22 11:57:03;;;;;;;;;;;;;;;31.14;39.13;99254.28;5051389;28;19908;-73
2023/09/22 11:59:34;;;;;;;;;;;;;;;31.26;38.95;99249.66;5041591;28;19966;-73
2023/09/22 12:02:04;;;;;;;;;;;;;;;31.21;39.18;99256.84;5049819;28;19920;-73
2023/09/22 12:04:29;;;;;;;;;;;;;;;31.21;38.76;99246.09;5062286;28;19913;-73
2023/09/22 12:06:55;;;;;;;;;;;;;;;31.44;37.60;99243.81;5051158;28;19915;-73
2023/09/22 12:09:20;;;;;;;;;;;;;;;31.38;37.46;99248.66;5062142;28;19912;-73
2023/09/22 12:11:46;;;;;;;;;;;;;;;31.56;37.73;99253.59;5061808;28;19913;-73
2023/09/22 12:14:11;;;;;;;;;;;;;;;31.58;35.76;99251.00;5054580;28;19912;-73
2023/09/22 12:16:39;;;;;;;;;;;;;;;31.42;37.54;99243.50;5055122;28;20340;-72
2023/09/22 12:19:05;;;;;;;;;;;;;;;31.69;36.95;99244.69;5037045;28;19952;-73
2023/09/22 12:21:31;;;;;;;;;;;;;;;31.95;35.86;99243.50;5063017;28;19954;-73
2023/09/22 12:23:56;;;;;;;;;;;;;;;31.81;36.71;99242.13;5056987;28;19924;-73
2023/09/22 12:26:22;;;;;;;;;;;;;;;31.74;36.74;99241.16;5036805;28;19908;-74
2023/09/22 12:28:48;;;;;;;;;;;;;;;31.71;36.64;99244.22;5054227;28;19913;-75
2023/09/22 12:31:13;;;;;;;;;;;;;;;31.72;36.62;99249.50;5045546;28;20392;-72
2023/09/22 12:33:39;;;;;;;;;;;;;;;31.69;37.06;99246.81;5049842;28;19916;-73
2023/09/22 12:36:04;;;;;;;;;;;;;;;32.05;35.85;99242.16;5046242;28;19928;-72
2023/09/22 12:38:30;;;;;;;;;;;;;;;31.98;35.87;99234.66;5030589;28;19928;-70
2023/09/22 12:40:57;;;;;;;;;;;;;;;32.01;35.61;99224.19;5032224;28;19921;-71